Time,TemperatureF,DewpointF,PressureIn,WindDirection,WindDirectionDegrees,WindSpeedMPH,WindSpeedGustMPH,Humidity,HourlyPrecipIn,Conditions,Clouds,dailyrainin,SoftwareType,DateUTC
2013-10-14 00:01:00,52.7,26.5,0.00,ENE,67,3.1,3.1,36,0.00,,---,0.00,VWS V14.01,2013-10-14 05:01:00,
2013-10-14 00:06:00,52.9,26.7,0.00,NE,54,3.1,3.1,36,0.00,,---,0.00,VWS V14.01,2013-10-14 05:06:00,
2013-10-14 00:11:00,53.1,26.8,0.00,East,82,4.0,4.0,36,0.00,,---,0.00,VWS V14.01,2013-10-14 05:11:00,
2013-10-14 00:16:00,53.1,26.8,0.00,ENE,77,2.7,3.1,36,0.00,,---,0.00,VWS V14.01,2013-10-14 05:16:00,
2013-10-14 00:21:00,53.1,26.8,0.00,East,89,4.0,4.0,36,0.00,,---,0.00,VWS V14.01,2013-10-14 05:21:00,
2013-10-14 00:26:00,53.1,26.8,0.00,East,84,3.1,3.1,36,0.00,,---,0.00,VWS V14.01,2013-10-14 05:26:00,
2013-10-14 00:31:00,53.1,26.8,0.00,East,87,2.7,3.1,36,0.00,,---,0.00,VWS V14.01,2013-10-14 05:31:00,
2013-10-14 00:36:00,53.1,26.8,0.00,East,87,2.2,2.2,36,0.00,,---,0.00,VWS V14.01,2013-10-14 05:36:00,
2013-10-14 00:41:00,52.9,26.7,0.00,East,86,2.7,3.1,36,0.00,,---,0.00,VWS V14.01,2013-10-14 05:41:00,
2013-10-14 00:46:00,53.1,26.8,0.00,East,86,2.7,2.7,36,0.00,,---,0.00,VWS V14.01,2013-10-14 05:46:00,
2013-10-14 00:51:00,53.2,27.0,0.00,East,84,3.1,3.1,36,0.00,,---,0.00,VWS V14.01,2013-10-14 05:51:00,
2013-10-14 00:56:00,53.4,27.1,0.00,East,91,2.7,2.7,36,0.00,,---,0.00,VWS V14.01,2013-10-14 05:56:00,
2013-10-14 01:01:00,53.6,27.3,0.00,East,92,3.1,3.1,36,0.00,,---,0.00,VWS V14.01,2013-10-14 06:01:00,
2013-10-14 01:06:00,54.9,28.4,0.00,ESE,110,2.7,5.4,36,0.00,,---,0.00,VWS V14.01,2013-10-14 06:06:00,
2013-10-14 01:11:00,55.4,28.2,0.00,SE,127,4.9,4.9,35,0.00,,---,0.00,VWS V14.01,2013-10-14 06:11:00,
2013-10-14 01:16:00,56.5,29.2,0.00,ESE,116,3.1,6.3,35,0.00,,---,0.00,VWS V14.01,2013-10-14 06:16:00,
2013-10-14 01:21:00,56.5,29.2,0.00,ESE,122,5.4,5.4,35,0.00,,---,0.00,VWS V14.01,2013-10-14 06:21:00,
2013-10-14 01:26:00,56.1,28.9,0.00,SE,128,5.4,5.4,35,0.00,,---,0.00,VWS V14.01,2013-10-14 06:26:00,
2013-10-14 01:31:00,55.9,28.7,0.00,ESE,120,4.0,4.0,35,0.00,,---,0.00,VWS V14.01,2013-10-14 06:31:00,
2013-10-14 01:36:00,55.0,28.6,0.00,SE,132,8.7,8.7,36,0.00,,---,0.00,VWS V14.01,2013-10-14 06:36:00,
2013-10-14 01:41:00,55.0,28.6,0.00,SE,128,6.3,6.3,36,0.00,,---,0.00,VWS V14.01,2013-10-14 06:41:00,
2013-10-14 01:46:00,55.2,28.8,0.00,ESE,122,4.0,6.7,36,0.00,,---,0.00,VWS V14.01,2013-10-14 06:46:00,
2013-10-14 01:51:00,54.3,28.0,0.00,ESE,123,5.4,5.4,36,0.00,,---,0.00,VWS V14.01,2013-10-14 06:51:00,
2013-10-14 01:56:00,54.3,28.0,0.00,SE,125,5.4,6.3,36,0.00,,---,0.00,VWS V14.01,2013-10-14 06:56:00,
2013-10-14 02:01:00,55.4,28.2,0.00,SE,131,4.9,4.9,35,0.00,,---,0.00,VWS V14.01,2013-10-14 07:01:00,
2013-10-14 02:06:00,55.8,28.5,0.00,SE,125,4.0,5.8,35,0.00,,---,0.00,VWS V14.01,2013-10-14 07:06:00,
2013-10-14 02:11:00,55.9,28.7,0.00,SE,132,5.8,5.8,35,0.00,,---,0.00,VWS V14.01,2013-10-14 07:11:00,
2013-10-14 02:16:00,56.1,28.9,0.00,SE,126,5.4,5.4,35,0.00,,---,0.00,VWS V14.01,2013-10-14 07:16:00,
2013-10-14 02:21:00,56.3,29.0,0.00,SE,128,5.4,6.3,35,0.00,,---,0.00,VWS V14.01,2013-10-14 07:21:00,
2013-10-14 02:26:00,56.1,28.9,0.00,SE,128,5.4,5.4,35,0.00,,---,0.00,VWS V14.01,2013-10-14 07:26:00,
2013-10-14 02:31:00,56.3,29.0,0.00,ESE,123,4.0,4.9,35,0.00,,---,0.00,VWS V14.01,2013-10-14 07:31:00,
2013-10-14 02:36:00,56.1,28.9,0.00,SE,128,5.8,6.3,35,0.00,,---,0.00,VWS V14.01,2013-10-14 07:36:00,
2013-10-14 02:41:00,56.3,29.0,0.00,SE,129,5.8,5.8,35,0.00,,---,0.00,VWS V14.01,2013-10-14 07:41:00,
2013-10-14 02:46:00,56.3,29.0,0.00,ESE,120,5.8,5.8,35,0.00,,---,0.00,VWS V14.01,2013-10-14 07:46:00,
2013-10-14 02:51:00,56.3,29.0,0.00,SE,136,5.4,6.3,35,0.00,,---,0.00,VWS V14.01,2013-10-14 07:51:00,
2013-10-14 02:56:00,56.5,29.2,0.00,SE,128,7.2,7.2,35,0.00,,---,0.00,VWS V14.01,2013-10-14 07:56:00,
2013-10-14 03:01:00,56.3,29.0,0.00,SE,131,6.3,6.3,35,0.00,,---,0.00,VWS V14.01,2013-10-14 08:01:00,
2013-10-14 03:06:00,56.3,29.0,0.00,SE,126,3.6,5.4,35,0.00,,---,0.00,VWS V14.01,2013-10-14 08:06:00,
2013-10-14 03:11:00,56.3,29.0,0.00,SE,126,5.4,5.8,35,0.00,,---,0.00,VWS V14.01,2013-10-14 08:11:00,
2013-10-14 03:16:00,56.3,29.0,0.00,ESE,122,4.9,5.4,35,0.00,,---,0.00,VWS V14.01,2013-10-14 08:16:00,
2013-10-14 03:21:00,56.3,29.0,0.00,SE,131,5.8,5.8,35,0.00,,---,0.00,VWS V14.01,2013-10-14 08:21:00,
2013-10-14 03:26:00,56.3,29.0,0.00,SE,128,6.3,6.3,35,0.00,,---,0.00,VWS V14.01,2013-10-14 08:26:00,
2013-10-14 03:31:00,56.3,29.0,0.00,SE,128,5.4,5.4,35,0.00,,---,0.00,VWS V14.01,2013-10-14 08:31:00,
2013-10-14 03:36:00,56.3,29.0,0.00,SE,129,5.4,5.4,35,0.00,,---,0.00,VWS V14.01,2013-10-14 08:36:00,
2013-10-14 03:41:00,56.3,29.0,0.00,SE,136,5.8,5.8,35,0.00,,---,0.00,VWS V14.01,2013-10-14 08:41:00,
2013-10-14 03:46:00,56.3,29.0,0.00,ESE,118,7.6,7.6,35,0.00,,---,0.00,VWS V14.01,2013-10-14 08:46:00,
2013-10-14 03:51:00,56.1,28.9,0.00,SE,130,7.6,7.6,35,0.00,,---,0.00,VWS V14.01,2013-10-14 08:51:00,
2013-10-14 03:56:00,56.1,28.9,0.00,SE,126,5.4,6.7,35,0.00,,---,0.00,VWS V14.01,2013-10-14 08:56:00,
2013-10-14 04:01:00,56.1,28.9,0.00,ESE,123,6.3,6.3,35,0.00,,---,0.00,VWS V14.01,2013-10-14 09:01:00,
2013-10-14 04:06:00,56.1,28.9,0.00,SE,129,6.3,7.6,35,0.00,,---,0.00,VWS V14.01,2013-10-14 09:06:00,
2013-10-14 04:11:00,56.1,28.9,0.00,SE,124,6.3,6.3,35,0.00,,---,0.00,VWS V14.01,2013-10-14 09:11:00,
2013-10-14 04:16:00,55.9,28.7,0.00,SE,128,5.4,5.4,35,0.00,,---,0.00,VWS V14.01,2013-10-14 09:16:00,
2013-10-14 04:21:00,55.9,28.7,0.00,SE,128,6.7,6.7,35,0.00,,---,0.00,VWS V14.01,2013-10-14 09:21:00,
2013-10-14 04:26:00,55.8,28.5,0.00,SE,124,5.4,6.7,35,0.00,,---,0.00,VWS V14.01,2013-10-14 09:26:00,
2013-10-14 04:31:00,55.6,28.4,0.00,SE,136,6.3,6.3,35,0.00,,---,0.00,VWS V14.01,2013-10-14 09:31:00,
2013-10-14 04:36:00,55.6,28.4,0.00,SE,145,5.8,5.8,35,0.00,,---,0.00,VWS V14.01,2013-10-14 09:36:00,
2013-10-14 04:41:00,55.4,28.2,0.00,SE,129,5.4,5.4,35,0.00,,---,0.00,VWS V14.01,2013-10-14 09:41:00,
2013-10-14 04:46:00,55.4,28.2,0.00,SE,126,6.3,8.1,35,0.00,,---,0.00,VWS V14.01,2013-10-14 09:46:00,
2013-10-14 04:51:00,55.2,28.8,0.00,SE,134,6.3,7.6,36,0.00,,---,0.00,VWS V14.01,2013-10-14 09:51:00,
2013-10-14 04:56:00,55.0,28.6,0.00,SE,145,5.8,5.8,36,0.00,,---,0.00,VWS V14.01,2013-10-14 09:56:00,
2013-10-14 05:01:00,54.9,28.4,0.00,SE,133,4.9,4.9,36,0.00,,---,0.00,VWS V14.01,2013-10-14 10:01:00,
2013-10-14 05:06:00,54.9,28.4,0.00,SE,128,5.8,5.8,36,0.00,,---,0.00,VWS V14.01,2013-10-14 10:06:00,
2013-10-14 05:11:00,54.7,28.3,0.00,SE,130,4.0,4.0,36,0.00,,---,0.00,VWS V14.01,2013-10-14 10:11:00,
2013-10-14 05:16:00,54.7,28.3,0.00,SE,142,5.4,5.4,36,0.00,,---,0.00,VWS V14.01,2013-10-14 10:16:00,
2013-10-14 05:21:00,54.9,28.4,0.00,SE,124,3.6,3.6,36,0.00,,---,0.00,VWS V14.01,2013-10-14 10:21:00,
2013-10-14 05:26:00,54.9,28.4,0.00,SE,129,5.4,5.4,36,0.00,,---,0.00,VWS V14.01,2013-10-14 10:26:00,
2013-10-14 05:31:00,54.9,28.4,0.00,SE,132,6.7,6.7,36,0.00,,---,0.00,VWS V14.01,2013-10-14 10:31:00,
2013-10-14 05:36:00,55.0,28.6,0.00,SE,129,6.3,6.3,36,0.00,,---,0.00,VWS V14.01,2013-10-14 10:36:00,
2013-10-14 05:41:00,55.0,28.6,0.00,SE,134,6.3,7.6,36,0.00,,---,0.00,VWS V14.01,2013-10-14 10:41:00,
2013-10-14 05:46:00,54.5,28.1,0.00,SE,130,6.3,6.3,36,0.00,,---,0.00,VWS V14.01,2013-10-14 10:46:00,
2013-10-14 05:51:00,54.5,28.1,0.00,SE,136,5.4,5.4,36,0.00,,---,0.00,VWS V14.01,2013-10-14 10:51:00,
2013-10-14 05:56:00,54.9,28.4,0.00,SE,126,6.3,6.3,36,0.00,,---,0.00,VWS V14.01,2013-10-14 10:56:00,
2013-10-14 06:01:00,54.9,28.4,0.00,SE,132,5.8,5.8,36,0.00,,---,0.00,VWS V14.01,2013-10-14 11:01:00,
2013-10-14 06:05:00,54.9,28.4,0.00,SE,136,6.3,6.3,36,0.00,,---,0.00,VWS V14.01,2013-10-14 11:05:00,
2013-10-14 06:10:00,54.9,28.4,0.00,SE,128,7.6,7.6,36,0.00,,---,0.00,VWS V14.01,2013-10-14 11:10:00,
2013-10-14 06:15:00,54.9,28.4,0.00,SE,141,8.1,8.1,36,0.00,,---,0.00,VWS V14.01,2013-10-14 11:15:00,
2013-10-14 06:20:00,54.3,28.0,0.00,SE,137,5.8,6.7,36,0.00,,---,0.00,VWS V14.01,2013-10-14 11:20:00,
2013-10-14 06:25:00,53.8,27.5,0.00,SE,133,4.0,5.8,36,0.00,,---,0.00,VWS V14.01,2013-10-14 11:25:00,
2013-10-14 06:30:00,53.8,27.5,0.00,SE,128,6.3,6.3,36,0.00,,---,0.00,VWS V14.01,2013-10-14 11:30:00,
2013-10-14 06:35:00,54.0,27.6,0.00,SE,131,4.0,4.0,36,0.00,,---,0.00,VWS V14.01,2013-10-14 11:35:00,
2013-10-14 06:40:00,54.1,27.8,0.00,SE,129,5.8,5.8,36,0.00,,---,0.00,VWS V14.01,2013-10-14 11:40:00,
2013-10-14 06:45:00,54.3,28.0,0.00,SE,127,4.0,5.8,36,0.00,,---,0.00,VWS V14.01,2013-10-14 11:45:00,
2013-10-14 06:50:00,54.3,28.0,0.00,SE,136,6.3,6.3,36,0.00,,---,0.00,VWS V14.01,2013-10-14 11:50:00,
2013-10-14 06:55:00,54.3,28.0,0.00,SE,132,6.3,6.3,36,0.00,,---,0.00,VWS V14.01,2013-10-14 11:55:00,
2013-10-14 07:00:00,53.6,27.3,0.00,SE,130,5.4,5.8,36,0.00,,---,0.00,VWS V14.01,2013-10-14 12:00:00,
2013-10-14 07:05:00,53.6,27.3,0.00,SE,132,5.4,5.4,36,0.00,,---,0.00,VWS V14.01,2013-10-14 12:05:00,
2013-10-14 07:10:00,53.1,26.8,0.00,SE,137,6.3,6.3,36,0.00,,---,0.00,VWS V14.01,2013-10-14 12:10:00,
2013-10-14 07:15:00,52.9,26.7,0.00,SE,133,3.6,3.6,36,0.00,,---,0.00,VWS V14.01,2013-10-14 12:15:00,
2013-10-14 07:20:00,53.1,26.8,0.00,SE,135,6.7,6.7,36,0.00,,---,0.00,VWS V14.01,2013-10-14 12:20:00,
2013-10-14 07:25:00,53.1,26.8,0.00,SE,131,4.0,4.0,36,0.00,,---,0.00,VWS V14.01,2013-10-14 12:25:00,
2013-10-14 07:30:00,53.1,26.8,0.00,SE,132,5.8,5.8,36,0.00,,---,0.00,VWS V14.01,2013-10-14 12:30:00,
2013-10-14 07:35:00,53.1,26.8,0.00,ESE,123,4.0,4.0,36,0.00,,---,0.00,VWS V14.01,2013-10-14 12:35:00,
2013-10-14 07:40:00,53.1,26.8,0.00,SE,126,6.3,6.3,36,0.00,,---,0.00,VWS V14.01,2013-10-14 12:40:00,
2013-10-14 07:45:00,53.2,27.0,0.00,SE,127,6.3,6.3,36,0.00,,---,0.00,VWS V14.01,2013-10-14 12:45:00,
2013-10-14 07:50:00,53.2,27.0,0.00,SE,126,5.4,5.4,36,0.00,,---,0.00,VWS V14.01,2013-10-14 12:50:00,
2013-10-14 07:55:00,53.2,27.0,0.00,SE,131,5.8,5.8,36,0.00,,---,0.00,VWS V14.01,2013-10-14 12:55:00,
2013-10-14 08:00:00,52.7,26.5,0.00,SE,128,4.0,4.0,36,0.00,,---,0.00,VWS V14.01,2013-10-14 13:00:00,
2013-10-14 08:05:00,52.2,26.0,0.00,SE,124,2.7,3.1,36,0.00,,---,0.00,VWS V14.01,2013-10-14 13:05:00,
2013-10-14 08:10:00,52.0,26.5,0.00,ESE,123,6.3,6.3,37,0.00,,---,0.00,VWS V14.01,2013-10-14 13:10:00,
2013-10-14 08:15:00,51.6,26.2,0.00,SE,129,3.6,3.6,37,0.00,,---,0.00,VWS V14.01,2013-10-14 13:15:00,
2013-10-14 08:20:00,51.6,26.9,0.00,SE,125,4.9,4.9,38,0.00,,---,0.00,VWS V14.01,2013-10-14 13:20:00,
2013-10-14 08:25:00,51.6,26.9,0.00,SE,127,4.0,4.0,38,0.00,,---,0.00,VWS V14.01,2013-10-14 13:25:00,
2013-10-14 08:30:00,51.6,26.9,0.00,SE,127,2.7,2.7,38,0.00,,---,0.00,VWS V14.01,2013-10-14 13:30:00,
2013-10-14 08:35:00,51.6,26.9,0.00,SSW,193,4.9,4.9,38,0.00,,---,0.00,VWS V14.01,2013-10-14 13:35:00,
2013-10-14 08:40:00,51.8,27.0,0.00,ESE,120,4.0,4.0,38,0.00,,---,0.00,VWS V14.01,2013-10-14 13:40:00,
2013-10-14 08:45:00,51.8,27.0,0.00,SE,137,5.4,5.4,38,0.00,,---,0.00,VWS V14.01,2013-10-14 13:45:00,
2013-10-14 08:50:00,52.0,27.2,0.00,SE,134,4.0,4.0,38,0.00,,---,0.00,VWS V14.01,2013-10-14 13:50:00,
2013-10-14 08:55:00,52.0,27.8,0.00,SE,128,4.0,4.0,39,0.00,,---,0.00,VWS V14.01,2013-10-14 13:55:00,
2013-10-14 09:00:00,52.2,28.0,0.00,SE,133,2.7,2.7,39,0.00,,---,0.00,VWS V14.01,2013-10-14 14:00:00,
2013-10-14 09:05:00,52.2,28.0,0.00,SE,135,3.1,4.0,39,0.00,,---,0.00,VWS V14.01,2013-10-14 14:05:00,
2013-10-14 09:10:00,52.2,28.0,0.00,SE,130,4.0,4.0,39,0.00,,---,0.00,VWS V14.01,2013-10-14 14:10:00,
2013-10-14 09:15:00,52.3,28.1,0.00,SE,134,4.9,4.9,39,0.00,,---,0.00,VWS V14.01,2013-10-14 14:15:00,
2013-10-14 09:20:00,52.5,28.3,0.00,SE,133,5.8,5.8,39,0.00,,---,0.00,VWS V14.01,2013-10-14 14:20:00,
2013-10-14 09:25:00,52.5,28.3,0.00,SE,135,4.0,4.0,39,0.00,,---,0.00,VWS V14.01,2013-10-14 14:25:00,
2013-10-14 09:30:00,52.7,29.1,0.00,SE,131,4.0,4.0,40,0.00,,---,0.00,VWS V14.01,2013-10-14 14:30:00,
2013-10-14 09:35:00,52.7,29.1,0.00,SE,131,4.9,4.9,40,0.00,,---,0.00,VWS V14.01,2013-10-14 14:35:00,
2013-10-14 09:40:00,52.9,29.2,0.00,SE,140,4.9,4.9,40,0.00,,---,0.00,VWS V14.01,2013-10-14 14:40:00,
2013-10-14 09:45:00,52.9,29.2,0.00,SE,133,4.9,4.9,40,0.00,,---,0.00,VWS V14.01,2013-10-14 14:45:00,
2013-10-14 09:50:00,52.9,29.2,0.00,SE,130,4.9,4.9,40,0.00,,---,0.00,VWS V14.01,2013-10-14 14:50:00,
2013-10-14 09:55:00,53.1,29.4,0.00,SE,130,4.0,4.0,40,0.00,,---,0.00,VWS V14.01,2013-10-14 14:55:00,
2013-10-14 10:00:00,53.2,29.6,0.00,SE,132,4.0,5.4,40,0.00,,---,0.00,VWS V14.01,2013-10-14 15:00:00,
2013-10-14 10:05:00,53.2,30.2,0.00,SE,127,5.4,5.4,41,0.00,,---,0.00,VWS V14.01,2013-10-14 15:05:00,
2013-10-14 10:10:00,53.2,30.2,0.00,SE,126,5.8,5.8,41,0.00,,---,0.00,VWS V14.01,2013-10-14 15:10:00,
2013-10-14 10:15:00,53.2,30.2,0.00,SE,135,5.8,6.3,41,0.00,,---,0.00,VWS V14.01,2013-10-14 15:15:00,
2013-10-14 10:20:00,53.2,30.2,0.00,SE,131,3.6,5.4,41,0.04,,---,0.04,VWS V14.01,2013-10-14 15:20:00,
2013-10-14 10:25:00,53.2,30.8,0.00,SE,138,4.9,4.9,42,0.04,,---,0.04,VWS V14.01,2013-10-14 15:25:00,
2013-10-14 10:30:00,53.4,30.9,0.00,SE,131,6.3,6.3,42,0.04,,---,0.04,VWS V14.01,2013-10-14 15:30:00,
2013-10-14 10:35:00,53.6,31.7,0.00,SE,138,5.4,5.4,43,0.08,,---,0.08,VWS V14.01,2013-10-14 15:35:00,
2013-10-14 10:40:00,53.6,32.2,0.00,SE,128,5.8,5.8,44,0.08,,---,0.08,VWS V14.01,2013-10-14 15:40:00,
2013-10-14 10:45:00,53.8,33.5,0.00,SE,130,4.0,4.5,46,0.12,,---,0.12,VWS V14.01,2013-10-14 15:45:00,
2013-10-14 10:50:00,54.1,34.4,0.00,SE,130,4.9,4.9,47,0.12,,---,0.12,VWS V14.01,2013-10-14 15:50:00,
2013-10-14 10:55:00,54.1,34.4,0.00,ESE,120,2.7,3.1,47,0.16,,---,0.16,VWS V14.01,2013-10-14 15:55:00,
2013-10-14 11:00:00,54.5,35.2,0.00,SE,146,4.0,4.0,48,0.16,,---,0.16,VWS V14.01,2013-10-14 16:00:00,
2013-10-14 11:05:00,54.5,35.2,0.00,SE,128,4.0,6.3,48,0.16,,---,0.16,VWS V14.01,2013-10-14 16:05:00,
2013-10-14 11:10:00,55.0,35.7,0.00,SE,132,4.9,4.9,48,0.16,,---,0.16,VWS V14.01,2013-10-14 16:10:00,
2013-10-14 11:15:00,55.2,35.9,0.00,SE,135,4.0,4.0,48,0.16,,---,0.16,VWS V14.01,2013-10-14 16:15:00,
2013-10-14 11:20:00,56.1,36.2,0.00,SE,127,3.6,3.6,47,0.12,,---,0.16,VWS V14.01,2013-10-14 16:20:00,
2013-10-14 11:25:00,56.3,35.8,0.00,SE,137,4.9,4.9,46,0.12,,---,0.16,VWS V14.01,2013-10-14 16:25:00,
2013-10-14 11:30:00,57.2,36.1,0.00,SE,128,3.6,3.6,45,0.12,,---,0.16,VWS V14.01,2013-10-14 16:30:00,
2013-10-14 11:35:00,57.7,36.6,0.00,SE,136,2.7,2.7,45,0.08,,---,0.16,VWS V14.01,2013-10-14 16:35:00,
2013-10-14 11:40:00,59.7,36.0,0.00,SE,132,3.6,3.6,41,0.08,,---,0.16,VWS V14.01,2013-10-14 16:40:00,
2013-10-14 11:45:00,59.9,34.2,0.00,SE,126,3.6,4.0,38,0.04,,---,0.16,VWS V14.01,2013-10-14 16:45:00,
2013-10-14 11:50:00,61.5,34.3,0.00,SE,128,5.4,5.4,36,0.04,,---,0.16,VWS V14.01,2013-10-14 16:50:00,
2013-10-14 11:55:00,64.0,35.1,0.00,SSE,159,5.4,5.4,34,0.00,,---,0.16,VWS V14.01,2013-10-14 16:55:00,
2013-10-14 12:00:00,63.7,34.8,0.00,SE,138,6.3,6.3,34,0.00,,---,0.16,VWS V14.01,2013-10-14 17:00:00,
2013-10-14 12:05:00,64.0,35.1,0.00,SSE,147,7.2,7.2,34,0.00,,---,0.16,VWS V14.01,2013-10-14 17:05:00,
2013-10-14 12:10:00,64.8,35.0,0.00,SE,138,6.3,6.3,33,0.00,,---,0.16,VWS V14.01,2013-10-14 17:10:00,
2013-10-14 12:15:00,61.5,32.9,0.00,SE,136,5.4,5.4,34,0.00,,---,0.16,VWS V14.01,2013-10-14 17:15:00,
2013-10-14 12:20:00,60.4,32.7,0.00,SE,124,5.8,5.8,35,0.00,,---,0.16,VWS V14.01,2013-10-14 17:20:00,
2013-10-14 12:25:00,59.4,31.7,0.00,SE,135,5.4,5.4,35,0.00,,---,0.16,VWS V14.01,2013-10-14 17:25:00,
2013-10-14 12:30:00,59.4,31.7,0.00,SE,128,3.6,3.6,35,0.00,,---,0.16,VWS V14.01,2013-10-14 17:30:00,
2013-10-14 12:35:00,58.1,30.6,0.00,SE,124,4.0,4.0,35,0.00,,---,0.16,VWS V14.01,2013-10-14 17:35:00,
2013-10-14 12:40:00,57.6,30.8,0.00,ESE,119,4.9,4.9,36,0.00,,---,0.16,VWS V14.01,2013-10-14 17:40:00,
2013-10-14 12:45:00,57.6,30.8,0.00,ESE,106,5.4,5.4,36,0.00,,---,0.16,VWS V14.01,2013-10-14 17:45:00,
2013-10-14 12:50:00,57.2,31.2,0.00,SE,139,10.1,10.1,37,0.04,,---,0.20,VWS V14.01,2013-10-14 17:50:00,
2013-10-14 12:55:00,57.7,33.0,0.00,ESE,115,8.1,8.1,39,0.08,,---,0.24,VWS V14.01,2013-10-14 17:55:00,
2013-10-14 13:00:00,57.6,32.8,0.00,ESE,117,5.4,5.8,39,0.08,,---,0.24,VWS V14.01,2013-10-14 18:00:00,
2013-10-14 13:07:00,57.4,33.3,0.00,SE,133,2.7,5.4,40,0.12,,---,0.28,VWS V14.01,2013-10-14 18:07:00,
2013-10-14 13:12:00,57.2,33.1,0.00,SSE,151,3.1,3.1,40,0.16,,---,0.31,VWS V14.01,2013-10-14 18:12:00,
2013-10-14 13:17:00,57.0,33.6,0.00,SSE,164,0.0,0.0,41,0.20,,---,0.35,VWS V14.01,2013-10-14 18:17:00,
2013-10-14 13:22:00,57.2,34.3,0.00,SE,141,5.4,5.4,42,0.20,,---,0.35,VWS V14.01,2013-10-14 18:22:00,
2013-10-14 13:27:00,57.4,35.1,0.00,ENE,57,0.0,0.0,43,0.24,,---,0.39,VWS V14.01,2013-10-14 18:27:00,
2013-10-14 13:32:00,57.7,36.0,0.00,SE,126,3.1,3.1,44,0.24,,---,0.39,VWS V14.01,2013-10-14 18:32:00,
2013-10-14 13:37:00,58.8,36.4,0.00,SE,137,3.6,3.6,43,0.24,,---,0.39,VWS V14.01,2013-10-14 18:37:00,
2013-10-14 13:42:00,59.5,33.9,0.00,SSE,153,2.7,4.0,38,0.24,,---,0.39,VWS V14.01,2013-10-14 18:42:00,
2013-10-14 13:47:00,63.3,38.0,0.00,SE,146,4.9,4.9,39,0.24,,---,0.39,VWS V14.01,2013-10-14 18:47:00,
2013-10-14 13:52:00,64.6,34.8,0.00,SE,124,3.6,3.6,33,0.20,,---,0.39,VWS V14.01,2013-10-14 18:52:00,
2013-10-14 13:57:00,66.7,36.8,0.00,SE,139,5.8,5.8,33,0.16,,---,0.39,VWS V14.01,2013-10-14 18:57:00,
2013-10-14 14:02:00,69.8,38.6,0.00,SSE,152,4.9,4.9,32,0.16,,---,0.39,VWS V14.01,2013-10-14 19:02:00,
2013-10-14 14:07:00,68.2,38.0,0.00,SE,135,8.1,8.1,33,0.12,,---,0.39,VWS V14.01,2013-10-14 19:07:00,
2013-10-14 14:12:00,69.1,38.8,0.00,SE,136,8.1,8.1,33,0.08,,---,0.39,VWS V14.01,2013-10-14 19:12:00,
2013-10-14 14:17:00,72.0,40.5,0.00,SE,137,5.4,5.4,32,0.04,,---,0.39,VWS V14.01,2013-10-14 19:17:00,
2013-10-14 14:22:00,71.4,40.0,0.00,SE,136,4.9,4.9,32,0.04,,---,0.39,VWS V14.01,2013-10-14 19:22:00,
2013-10-14 14:27:00,72.5,41.0,0.00,SSE,156,5.8,5.8,32,0.00,,---,0.39,VWS V14.01,2013-10-14 19:27:00,
2013-10-14 14:32:00,71.8,40.4,0.00,SE,137,5.8,5.8,32,0.00,,---,0.39,VWS V14.01,2013-10-14 19:32:00,
2013-10-14 14:37:00,70.2,39.0,0.00,SSE,162,5.4,5.4,32,0.00,,---,0.39,VWS V14.01,2013-10-14 19:37:00,
2013-10-14 14:42:00,71.2,39.9,0.00,South,175,8.1,8.1,32,0.00,,---,0.39,VWS V14.01,2013-10-14 19:42:00,
2013-10-14 14:47:00,70.0,38.8,0.00,SSE,153,3.1,3.1,32,0.00,,---,0.39,VWS V14.01,2013-10-14 19:47:00,
2013-10-14 14:52:00,71.1,39.7,0.00,SE,137,6.3,6.3,32,0.00,,---,0.39,VWS V14.01,2013-10-14 19:52:00,
2013-10-14 14:57:00,74.5,41.9,0.00,SE,134,3.6,3.6,31,0.00,,---,0.39,VWS V14.01,2013-10-14 19:57:00,
2013-10-14 15:02:00,73.9,41.4,0.00,SE,133,3.6,6.3,31,0.00,,---,0.39,VWS V14.01,2013-10-14 20:02:00,
2013-10-14 15:07:00,74.8,42.2,0.00,SE,135,4.9,4.9,31,0.00,,---,0.39,VWS V14.01,2013-10-14 20:07:00,
2013-10-14 15:12:00,74.8,42.2,0.00,SE,139,5.8,5.8,31,0.00,,---,0.39,VWS V14.01,2013-10-14 20:12:00,
2013-10-14 15:17:00,74.7,42.0,0.00,SSE,156,5.8,5.8,31,0.00,,---,0.39,VWS V14.01,2013-10-14 20:17:00,
2013-10-14 15:22:00,75.2,42.5,0.00,SE,130,3.6,3.6,31,0.00,,---,0.39,VWS V14.01,2013-10-14 20:22:00,
2013-10-14 15:27:00,75.4,42.7,0.00,SE,127,3.1,3.1,31,0.00,,---,0.39,VWS V14.01,2013-10-14 20:27:00,
2013-10-14 15:32:00,76.5,43.6,0.00,SE,133,3.6,3.6,31,0.00,,---,0.39,VWS V14.01,2013-10-14 20:32:00,
2013-10-14 15:37:00,74.7,42.0,0.00,South,174,5.8,6.7,31,0.00,,---,0.39,VWS V14.01,2013-10-14 20:37:00,
2013-10-14 15:42:00,75.2,42.5,0.00,SE,130,3.6,3.6,31,0.00,,---,0.39,VWS V14.01,2013-10-14 20:42:00,
2013-10-14 15:47:00,72.7,41.2,0.00,ESE,123,3.6,3.6,32,0.00,,---,0.39,VWS V14.01,2013-10-14 20:47:00,
2013-10-14 15:52:00,69.8,38.6,0.00,SE,130,3.1,3.1,32,0.00,,---,0.39,VWS V14.01,2013-10-14 20:52:00,
2013-10-14 15:57:00,67.1,37.1,0.00,SSE,150,5.4,5.4,33,0.00,,---,0.39,VWS V14.01,2013-10-14 20:57:00,
2013-10-14 16:02:00,62.8,34.0,0.00,SW,214,5.4,5.4,34,0.00,,---,0.39,VWS V14.01,2013-10-14 21:02:00,
2013-10-14 16:07:00,64.4,34.7,0.00,NW,322,2.2,3.6,33,0.04,,---,0.43,VWS V14.01,2013-10-14 21:07:00,
2013-10-14 16:12:00,62.8,34.0,0.00,NNW,337,7.6,7.6,34,0.04,,---,0.43,VWS V14.01,2013-10-14 21:12:00,
2013-10-14 16:17:00,61.3,32.8,0.00,SSE,160,11.0,11.0,34,0.04,,---,0.43,VWS V14.01,2013-10-14 21:17:00,
2013-10-14 16:22:00,60.3,32.5,0.00,West,281,17.9,17.9,35,0.04,,---,0.43,VWS V14.01,2013-10-14 21:22:00,
2013-10-14 16:27:00,61.0,32.4,0.00,WNW,297,11.9,11.9,34,0.04,,---,0.43,VWS V14.01,2013-10-14 21:27:00,
2013-10-14 16:32:00,61.0,32.4,0.00,NNE,22,8.1,8.1,34,0.04,,---,0.43,VWS V14.01,2013-10-14 21:32:00,
2013-10-14 16:37:00,61.7,33.1,0.00,NW,309,8.1,8.1,34,0.04,,---,0.43,VWS V14.01,2013-10-14 21:37:00,
2013-10-14 16:42:00,61.0,32.4,0.00,NNE,17,14.1,14.1,34,0.04,,---,0.43,VWS V14.01,2013-10-14 21:42:00,
2013-10-14 16:47:00,61.5,32.9,0.00,WNW,288,4.0,4.0,34,0.04,,---,0.43,VWS V14.01,2013-10-14 21:47:00,
2013-10-14 16:52:00,61.0,32.4,0.00,WNW,283,10.5,12.3,34,0.04,,---,0.43,VWS V14.01,2013-10-14 21:52:00,
2013-10-14 16:57:00,60.3,32.5,0.00,WNW,294,10.1,10.1,35,0.04,,---,0.43,VWS V14.01,2013-10-14 21:57:00,
2013-10-14 17:02:00,61.0,32.4,0.00,NW,314,6.3,8.3,34,0.04,,---,0.43,VWS V14.01,2013-10-14 22:02:00,
2013-10-14 17:07:00,61.3,32.8,0.00,WNW,286,7.6,7.6,34,0.00,,---,0.43,VWS V14.01,2013-10-14 22:07:00,
2013-10-14 17:12:00,61.3,32.8,0.00,NNW,328,7.6,7.6,34,0.00,,---,0.43,VWS V14.01,2013-10-14 22:12:00,
2013-10-14 17:17:00,60.3,32.5,0.00,WNW,301,11.0,11.0,35,0.00,,---,0.43,VWS V14.01,2013-10-14 22:17:00,
2013-10-14 17:22:00,56.7,29.3,0.00,NW,312,10.5,10.5,35,0.00,,---,0.43,VWS V14.01,2013-10-14 22:22:00,
2013-10-14 17:27:00,55.6,28.4,0.00,West,272,6.3,8.7,35,0.00,,---,0.43,VWS V14.01,2013-10-14 22:27:00,
2013-10-14 17:32:00,55.2,28.8,0.00,North,8,15.0,15.0,36,0.00,,---,0.43,VWS V14.01,2013-10-14 22:32:00,
2013-10-14 17:37:00,55.0,28.6,0.00,WNW,288,8.3,8.3,36,0.00,,---,0.43,VWS V14.01,2013-10-14 22:37:00,
2013-10-14 17:42:00,54.9,28.4,0.00,NW,317,10.1,10.1,36,0.00,,---,0.43,VWS V14.01,2013-10-14 22:42:00,
2013-10-14 17:47:00,54.7,28.3,0.00,NW,311,5.8,5.8,36,0.00,,---,0.43,VWS V14.01,2013-10-14 22:47:00,
2013-10-14 17:52:00,54.5,28.1,0.00,NW,311,2.7,5.4,36,0.00,,---,0.43,VWS V14.01,2013-10-14 22:52:00,
2013-10-14 17:57:00,54.0,27.6,0.00,WNW,288,8.3,8.3,36,0.00,,---,0.43,VWS V14.01,2013-10-14 22:57:00,
2013-10-14 18:02:00,53.8,27.5,0.00,WSW,252,15.0,15.0,36,0.00,,---,0.43,VWS V14.01,2013-10-14 23:02:00,
2013-10-14 18:07:00,53.6,27.3,0.00,NW,317,7.6,7.6,36,0.00,,---,0.43,VWS V14.01,2013-10-14 23:07:00,
2013-10-14 18:12:00,53.4,27.1,0.00,North,357,5.4,11.0,36,0.00,,---,0.43,VWS V14.01,2013-10-14 23:12:00,
2013-10-14 18:17:00,53.2,27.0,0.00,West,276,8.3,8.3,36,0.00,,---,0.43,VWS V14.01,2013-10-14 23:17:00,
2013-10-14 18:22:00,52.7,26.5,0.00,West,265,5.4,5.4,36,0.00,,---,0.43,VWS V14.01,2013-10-14 23:22:00,
2013-10-14 18:27:00,52.7,26.5,0.00,NW,318,12.8,12.8,36,0.00,,---,0.43,VWS V14.01,2013-10-14 23:27:00,
2013-10-14 18:32:00,52.3,26.2,0.00,West,268,10.5,10.5,36,0.00,,---,0.43,VWS V14.01,2013-10-14 23:32:00,
2013-10-14 18:37:00,52.2,26.0,0.00,SW,224,8.3,8.3,36,0.00,,---,0.43,VWS V14.01,2013-10-14 23:37:00,
2013-10-14 18:42:00,52.0,25.9,0.00,WNW,293,5.8,5.8,36,0.00,,---,0.43,VWS V14.01,2013-10-14 23:42:00,
2013-10-14 18:47:00,51.6,25.6,0.00,South,186,5.4,5.4,36,0.00,,---,0.43,VWS V14.01,2013-10-14 23:47:00,
2013-10-14 18:52:00,51.6,25.6,0.00,WNW,302,11.0,17.4,36,0.00,,---,0.43,VWS V14.01,2013-10-14 23:52:00,
2013-10-14 18:57:00,51.4,25.4,0.00,West,280,12.8,12.8,36,0.00,,---,0.43,VWS V14.01,2013-10-14 23:57:00,
2013-10-14 19:02:00,51.4,25.4,0.00,WNW,303,8.1,8.1,36,0.00,,---,0.43,VWS V14.01,2013-10-15 00:02:00,
2013-10-14 19:07:00,51.4,25.4,0.00,NW,324,5.8,8.3,36,0.00,,---,0.43,VWS V14.01,2013-10-15 00:07:00,
2013-10-14 19:12:00,51.3,25.2,0.00,WNW,298,8.7,8.7,36,0.00,,---,0.43,VWS V14.01,2013-10-15 00:12:00,
2013-10-14 19:17:00,51.3,25.2,0.00,WNW,298,5.4,8.3,36,0.00,,---,0.43,VWS V14.01,2013-10-15 00:17:00,
2013-10-14 19:22:00,51.1,25.1,0.00,WSW,250,8.1,8.7,36,0.00,,---,0.43,VWS V14.01,2013-10-15 00:22:00,
2013-10-14 19:27:00,50.9,24.9,0.00,NNW,329,5.8,5.8,36,0.00,,---,0.43,VWS V14.01,2013-10-15 00:27:00,
2013-10-14 19:32:00,50.7,24.8,0.00,WNW,297,12.3,12.3,36,0.00,,---,0.43,VWS V14.01,2013-10-15 00:32:00,
2013-10-14 19:37:00,50.5,24.6,0.00,WNW,287,8.7,11.4,36,0.00,,---,0.43,VWS V14.01,2013-10-15 00:37:00,
2013-10-14 19:42:00,50.5,24.6,0.00,North,4,4.0,11.0,36,0.00,,---,0.43,VWS V14.01,2013-10-15 00:42:00,
2013-10-14 19:47:00,50.2,24.3,0.00,WSW,256,10.1,10.1,36,0.00,,---,0.43,VWS V14.01,2013-10-15 00:47:00,
2013-10-14 19:51:00,50.2,24.3,0.00,West,266,5.4,5.4,36,0.00,,---,0.43,VWS V14.01,2013-10-15 00:51:00,
2013-10-14 19:56:00,49.5,24.3,0.00,West,281,13.6,13.6,37,0.00,,---,0.43,VWS V14.01,2013-10-15 00:56:00,
2013-10-14 20:01:00,48.9,23.8,0.00,West,261,15.4,15.4,37,0.00,,---,0.43,VWS V14.01,2013-10-15 01:01:00,
2013-10-14 20:06:00,48.4,23.3,0.00,WNW,290,6.3,6.3,37,0.00,,---,0.43,VWS V14.01,2013-10-15 01:06:00,
2013-10-14 20:11:00,48.0,23.0,0.00,NNW,342,4.0,4.0,37,0.00,,---,0.43,VWS V14.01,2013-10-15 01:11:00,
2013-10-14 20:16:00,47.3,22.4,0.00,West,275,3.1,3.1,37,0.00,,---,0.43,VWS V14.01,2013-10-15 01:16:00,
2013-10-14 20:21:00,48.0,23.0,0.00,NW,318,2.7,11.9,37,0.00,,---,0.43,VWS V14.01,2013-10-15 01:21:00,
2013-10-14 20:26:00,48.0,23.0,0.00,WNW,288,3.1,5.8,37,0.00,,---,0.43,VWS V14.01,2013-10-15 01:26:00,
2013-10-14 20:31:00,48.2,23.2,0.00,West,262,3.6,3.6,37,0.00,,---,0.43,VWS V14.01,2013-10-15 01:31:00,
2013-10-14 20:36:00,48.4,23.3,0.00,West,275,7.6,7.6,37,0.00,,---,0.43,VWS V14.01,2013-10-15 01:36:00,
2013-10-14 20:41:00,48.4,23.3,0.00,WNW,291,12.3,12.3,37,0.00,,---,0.43,VWS V14.01,2013-10-15 01:41:00,
2013-10-14 20:46:00,48.4,23.3,0.00,SW,224,15.4,15.4,37,0.00,,---,0.43,VWS V14.01,2013-10-15 01:46:00,
2013-10-14 20:51:00,48.4,23.3,0.00,NW,324,8.7,8.7,37,0.00,,---,0.43,VWS V14.01,2013-10-15 01:51:00,
2013-10-14 20:56:00,48.2,23.2,0.00,NW,304,13.2,13.2,37,0.00,,---,0.43,VWS V14.01,2013-10-15 01:56:00,
2013-10-14 21:01:00,47.3,22.4,0.00,WNW,301,4.0,4.0,37,0.00,,---,0.43,VWS V14.01,2013-10-15 02:01:00,
2013-10-14 21:06:00,46.6,21.7,0.00,NW,326,4.9,10.5,37,0.00,,---,0.43,VWS V14.01,2013-10-15 02:06:00,
2013-10-14 21:11:00,46.6,21.7,0.00,NW,324,13.2,13.2,37,0.00,,---,0.43,VWS V14.01,2013-10-15 02:11:00,
2013-10-14 21:16:00,46.2,22.0,0.00,WNW,285,4.0,4.0,38,0.00,,---,0.43,VWS V14.01,2013-10-15 02:16:00,
2013-10-14 21:21:00,46.2,22.0,0.00,SW,233,3.6,5.8,38,0.00,,---,0.43,VWS V14.01,2013-10-15 02:21:00,
2013-10-14 21:26:00,45.5,21.4,0.00,NW,316,11.9,11.9,38,0.00,,---,0.43,VWS V14.01,2013-10-15 02:26:00,
2013-10-14 21:31:00,45.5,21.4,0.00,NNW,335,8.3,8.3,38,0.00,,---,0.43,VWS V14.01,2013-10-15 02:31:00,
2013-10-14 21:36:00,45.0,20.9,0.00,West,263,11.4,11.4,38,0.00,,---,0.43,VWS V14.01,2013-10-15 02:36:00,
2013-10-14 21:41:00,44.8,20.7,0.00,West,277,7.6,7.6,38,0.00,,---,0.43,VWS V14.01,2013-10-15 02:41:00,
2013-10-14 21:46:00,44.6,20.6,0.00,WSW,256,5.4,11.0,38,0.00,,---,0.43,VWS V14.01,2013-10-15 02:46:00,
2013-10-14 21:51:00,44.1,20.1,0.00,NNW,348,5.4,5.4,38,0.00,,---,0.43,VWS V14.01,2013-10-15 02:51:00,
2013-10-14 21:56:00,44.2,20.3,0.00,NNW,341,6.3,6.3,38,0.00,,---,0.43,VWS V14.01,2013-10-15 02:56:00,
2013-10-14 22:01:00,43.9,19.9,0.00,NW,325,9.6,13.2,38,0.00,,---,0.43,VWS V14.01,2013-10-15 03:01:00,
2013-10-14 22:06:00,43.9,19.9,0.00,NNW,327,6.3,6.3,38,0.00,,---,0.43,VWS V14.01,2013-10-15 03:06:00,
2013-10-14 22:11:00,43.3,19.5,0.00,NW,318,8.7,8.7,38,0.00,,---,0.43,VWS V14.01,2013-10-15 03:11:00,
2013-10-14 22:16:00,43.2,19.3,0.00,WNW,291,4.0,4.0,38,0.00,,---,0.43,VWS V14.01,2013-10-15 03:16:00,
2013-10-14 22:21:00,43.3,19.5,0.00,WSW,250,8.3,8.3,38,0.00,,---,0.43,VWS V14.01,2013-10-15 03:21:00,
2013-10-14 22:26:00,43.2,19.3,0.00,WNW,300,7.6,7.6,38,0.00,,---,0.43,VWS V14.01,2013-10-15 03:26:00,
2013-10-14 22:31:00,43.3,19.5,0.00,West,277,6.3,6.3,38,0.00,,---,0.43,VWS V14.01,2013-10-15 03:31:00,
2013-10-14 22:36:00,43.3,19.5,0.00,WSW,257,8.7,8.7,38,0.00,,---,0.43,VWS V14.01,2013-10-15 03:36:00,
2013-10-14 22:41:00,43.7,19.8,0.00,West,261,8.7,8.7,38,0.00,,---,0.43,VWS V14.01,2013-10-15 03:41:00,
2013-10-14 22:46:00,44.2,20.3,0.00,SSE,152,5.4,5.4,38,0.00,,---,0.43,VWS V14.01,2013-10-15 03:46:00,
2013-10-14 22:51:00,44.1,20.1,0.00,WNW,302,7.6,7.6,38,0.00,,---,0.43,VWS V14.01,2013-10-15 03:51:00,
2013-10-14 22:56:00,44.2,20.3,0.00,WNW,298,8.3,8.3,38,0.00,,---,0.43,VWS V14.01,2013-10-15 03:56:00,
2013-10-14 23:01:00,44.2,20.3,0.00,NNW,346,5.4,5.4,38,0.00,,---,0.43,VWS V14.01,2013-10-15 04:01:00,
2013-10-14 23:06:00,44.4,20.4,0.00,WSW,240,10.1,10.1,38,0.00,,---,0.43,VWS V14.01,2013-10-15 04:06:00,
2013-10-14 23:11:00,45.1,21.1,0.00,NW,317,8.3,8.3,38,0.00,,---,0.43,VWS V14.01,2013-10-15 04:11:00,
2013-10-14 23:16:00,44.8,20.7,0.00,West,271,9.6,9.6,38,0.00,,---,0.43,VWS V14.01,2013-10-15 04:16:00,
2013-10-14 23:21:00,45.0,20.9,0.00,WNW,303,7.6,7.6,38,0.00,,---,0.43,VWS V14.01,2013-10-15 04:21:00,
2013-10-14 23:26:00,44.4,20.4,0.00,WNW,300,5.8,5.8,38,0.00,,---,0.43,VWS V14.01,2013-10-15 04:26:00,
2013-10-14 23:31:00,44.1,20.1,0.00,WSW,252,8.3,8.3,38,0.00,,---,0.43,VWS V14.01,2013-10-15 04:31:00,
2013-10-14 23:36:00,44.1,20.1,0.00,WNW,294,15.0,15.0,38,0.00,,---,0.43,VWS V14.01,2013-10-15 04:36:00,
2013-10-14 23:41:00,44.6,20.6,0.00,North,7,7.6,7.6,38,0.00,,---,0.43,VWS V14.01,2013-10-15 04:41:00,
2013-10-14 23:46:00,44.1,20.1,0.00,WNW,295,13.2,13.2,38,0.00,,---,0.43,VWS V14.01,2013-10-15 04:46:00,
2013-10-14 23:51:00,43.7,19.8,0.00,WNW,287,5.8,5.8,38,0.00,,---,0.43,VWS V14.01,2013-10-15 04:51:00,
2013-10-14 23:56:00,43.5,19.6,0.00,NW,305,9.2,9.2,38,0.00,,---,0.43,VWS V14.01,2013-10-15 04:56:00,